sensor_id;sensor_type;location;lat;lon;timestamp;P1;durP1;ratioP1;P2;durP2;ratioP2
64029;SDS011;50277;52.064;4.492;2023-06-24T00:01:19;4.22;;;2.47;;
64029;SDS011;50277;52.064;4.492;2023-06-24T00:03:45;2.45;;;2.10;;
64029;SDS011;50277;52.064;4.492;2023-06-24T00:06:12;2.58;;;2.33;;
64029;SDS011;50277;52.064;4.492;2023-06-24T00:08:43;2.60;;;2.40;;
64029;SDS011;50277;52.064;4.492;2023-06-24T00:11:10;3.55;;;2.47;;
64029;SDS011;50277;52.064;4.492;2023-06-24T00:13:35;2.67;;;2.22;;
64029;SDS011;50277;52.064;4.492;2023-06-24T00:16:01;2.63;;;2.42;;
64029;SDS011;50277;52.064;4.492;2023-06-24T00:18:26;2.50;;;2.30;;
64029;SDS011;50277;52.064;4.492;2023-06-24T00:20:53;2.60;;;2.17;;
64029;SDS011;50277;52.064;4.492;2023-06-24T00:23:21;3.10;;;2.20;;
64029;SDS011;50277;52.064;4.492;2023-06-24T00:25:49;2.40;;;2.10;;
64029;SDS011;50277;52.064;4.492;2023-06-24T00:28:18;2.65;;;2.20;;
64029;SDS011;50277;52.064;4.492;2023-06-24T00:30:43;5.65;;;2.67;;
64029;SDS011;50277;52.064;4.492;2023-06-24T00:33:09;4.05;;;2.63;;
64029;SDS011;50277;52.064;4.492;2023-06-24T00:35:36;4.67;;;2.70;;
64029;SDS011;50277;52.064;4.492;2023-06-24T00:38:04;3.78;;;2.55;;
64029;SDS011;50277;52.064;4.492;2023-06-24T00:40:31;5.00;;;2.50;;
64029;SDS011;50277;52.064;4.492;2023-06-24T00:42:56;2.83;;;2.53;;
64029;SDS011;50277;52.064;4.492;2023-06-24T00:45:22;4.75;;;2.65;;
64029;SDS011;50277;52.064;4.492;2023-06-24T00:47:48;2.75;;;2.55;;
64029;SDS011;50277;52.064;4.492;2023-06-24T00:50:14;5.93;;;2.60;;
64029;SDS011;50277;52.064;4.492;2023-06-24T00:52:40;3.10;;;2.30;;
64029;SDS011;50277;52.064;4.492;2023-06-24T00:55:07;2.87;;;2.57;;
64029;SDS011;50277;52.064;4.492;2023-06-24T00:57:34;2.75;;;2.38;;
64029;SDS011;50277;52.064;4.492;2023-06-24T01:00:02;3.05;;;2.38;;
64029;SDS011;50277;52.064;4.492;2023-06-24T01:02:33;5.30;;;2.65;;
64029;SDS011;50277;52.064;4.492;2023-06-24T01:05:02;2.47;;;2.25;;
64029;SDS011;50277;52.064;4.492;2023-06-24T01:07:28;3.22;;;2.42;;
64029;SDS011;50277;52.064;4.492;2023-06-24T01:09:55;4.20;;;2.50;;
64029;SDS011;50277;52.064;4.492;2023-06-24T01:12:20;3.25;;;2.95;;
64029;SDS011;50277;52.064;4.492;2023-06-24T01:14:46;2.67;;;2.30;;
64029;SDS011;50277;52.064;4.492;2023-06-24T01:17:15;3.88;;;2.70;;
64029;SDS011;50277;52.064;4.492;2023-06-24T01:19:53;4.35;;;2.63;;
64029;SDS011;50277;52.064;4.492;2023-06-24T01:22:37;3.80;;;2.88;;
64029;SDS011;50277;52.064;4.492;2023-06-24T01:30:41;4.55;;;2.80;;
64029;SDS011;50277;52.064;4.492;2023-06-24T01:33:32;4.97;;;3.05;;
64029;SDS011;50277;52.064;4.492;2023-06-24T01:36:03;3.33;;;2.63;;
64029;SDS011;50277;52.064;4.492;2023-06-24T01:38:31;4.22;;;2.42;;
64029;SDS011;50277;52.064;4.492;2023-06-24T01:41:01;4.15;;;2.63;;
64029;SDS011;50277;52.064;4.492;2023-06-24T01:43:28;2.97;;;2.30;;
64029;SDS011;50277;52.064;4.492;2023-06-24T01:45:53;6.05;;;3.20;;
64029;SDS011;50277;52.064;4.492;2023-06-24T01:48:24;3.08;;;2.65;;
64029;SDS011;50277;52.064;4.492;2023-06-24T01:50:58;3.05;;;2.80;;
64029;SDS011;50277;52.064;4.492;2023-06-24T01:53:26;2.60;;;2.40;;
64029;SDS011;50277;52.064;4.492;2023-06-24T01:55:53;5.85;;;2.60;;
64029;SDS011;50277;52.064;4.492;2023-06-24T01:58:19;4.80;;;2.47;;
64029;SDS011;50277;52.064;4.492;2023-06-24T02:00:45;3.65;;;2.58;;
64029;SDS011;50277;52.064;4.492;2023-06-24T02:03:10;4.03;;;2.60;;
64029;SDS011;50277;52.064;4.492;2023-06-24T02:05:36;3.78;;;2.83;;
64029;SDS011;50277;52.064;4.492;2023-06-24T02:08:04;3.17;;;2.88;;
64029;SDS011;50277;52.064;4.492;2023-06-24T02:10:32;3.65;;;3.03;;
64029;SDS011;50277;52.064;4.492;2023-06-24T02:12:57;6.43;;;3.13;;
64029;SDS011;50277;52.064;4.492;2023-06-24T02:15:23;8.18;;;2.85;;
64029;SDS011;50277;52.064;4.492;2023-06-24T02:17:50;6.68;;;3.10;;
64029;SDS011;50277;52.064;4.492;2023-06-24T02:20:17;6.63;;;3.30;;
64029;SDS011;50277;52.064;4.492;2023-06-24T02:22:44;4.18;;;2.80;;
64029;SDS011;50277;52.064;4.492;2023-06-24T02:25:10;6.03;;;3.08;;
64029;SDS011;50277;52.064;4.492;2023-06-24T02:27:36;6.75;;;3.33;;
64029;SDS011;50277;52.064;4.492;2023-06-24T02:30:03;6.05;;;3.47;;
64029;SDS011;50277;52.064;4.492;2023-06-24T02:32:29;4.88;;;3.35;;
64029;SDS011;50277;52.064;4.492;2023-06-24T02:34:54;3.72;;;2.72;;
64029;SDS011;50277;52.064;4.492;2023-06-24T02:37:20;3.22;;;2.92;;
64029;SDS011;50277;52.064;4.492;2023-06-24T02:39:46;4.57;;;3.20;;
64029;SDS011;50277;52.064;4.492;2023-06-24T02:42:11;3.67;;;3.38;;
64029;SDS011;50277;52.064;4.492;2023-06-24T02:44:37;8.25;;;3.60;;
64029;SDS011;50277;52.064;4.492;2023-06-24T02:47:06;5.90;;;3.40;;
64029;SDS011;50277;52.064;4.492;2023-06-24T02:49:34;4.05;;;3.00;;
64029;SDS011;50277;52.064;4.492;2023-06-24T02:52:00;3.63;;;3.20;;
64029;SDS011;50277;52.064;4.492;2023-06-24T02:54:25;4.38;;;3.35;;
64029;SDS011;50277;52.064;4.492;2023-06-24T02:56:51;3.30;;;3.00;;
64029;SDS011;50277;52.064;4.492;2023-06-24T02:59:16;6.40;;;3.30;;
64029;SDS011;50277;52.064;4.492;2023-06-24T03:01:42;4.78;;;3.10;;
64029;SDS011;50277;52.064;4.492;2023-06-24T03:04:10;3.88;;;3.38;;
64029;SDS011;50277;52.064;4.492;2023-06-24T03:06:36;5.25;;;3.65;;
64029;SDS011;50277;52.064;4.492;2023-06-24T03:09:02;6.88;;;4.10;;
64029;SDS011;50277;52.064;4.492;2023-06-24T03:11:28;4.72;;;3.38;;
64029;SDS011;50277;52.064;4.492;2023-06-24T03:13:54;4.63;;;3.17;;
64029;SDS011;50277;52.064;4.492;2023-06-24T03:16:19;3.42;;;3.13;;
64029;SDS011;50277;52.064;4.492;2023-06-24T03:18:45;4.95;;;3.63;;
64029;SDS011;50277;52.064;4.492;2023-06-24T03:21:10;4.55;;;3.30;;
64029;SDS011;50277;52.064;4.492;2023-06-24T03:23:36;3.55;;;3.25;;
64029;SDS011;50277;52.064;4.492;2023-06-24T03:26:02;3.88;;;3.47;;
64029;SDS011;50277;52.064;4.492;2023-06-24T03:28:29;7.13;;;3.38;;
64029;SDS011;50277;52.064;4.492;2023-06-24T03:30:56;5.85;;;3.80;;
64029;SDS011;50277;52.064;4.492;2023-06-24T03:33:22;4.97;;;3.90;;
64029;SDS011;50277;52.064;4.492;2023-06-24T03:35:49;4.22;;;3.30;;
64029;SDS011;50277;52.064;4.492;2023-06-24T03:38:15;5.72;;;4.13;;
64029;SDS011;50277;52.064;4.492;2023-06-24T03:40:40;4.22;;;3.50;;
64029;SDS011;50277;52.064;4.492;2023-06-24T03:43:06;7.22;;;4.00;;
64029;SDS011;50277;52.064;4.492;2023-06-24T03:45:31;6.97;;;4.20;;
64029;SDS011;50277;52.064;4.492;2023-06-24T03:47:56;5.35;;;3.95;;
64029;SDS011;50277;52.064;4.492;2023-06-24T03:50:22;4.22;;;3.90;;
64029;SDS011;50277;52.064;4.492;2023-06-24T03:52:47;6.38;;;4.30;;
64029;SDS011;50277;52.064;4.492;2023-06-24T03:55:12;5.22;;;3.80;;
64029;SDS011;50277;52.064;4.492;2023-06-24T03:57:38;5.85;;;4.20;;
64029;SDS011;50277;52.064;4.492;2023-06-24T04:00:03;7.50;;;4.57;;
64029;SDS011;50277;52.064;4.492;2023-06-24T04:02:41;5.20;;;3.63;;
64029;SDS011;50277;52.064;4.492;2023-06-24T04:05:07;5.85;;;3.90;;
64029;SDS011;50277;52.064;4.492;2023-06-24T04:07:32;4.18;;;3.78;;
64029;SDS011;50277;52.064;4.492;2023-06-24T04:09:58;7.25;;;4.30;;
64029;SDS011;50277;52.064;4.492;2023-06-24T04:12:23;4.32;;;3.80;;
64029;SDS011;50277;52.064;4.492;2023-06-24T04:14:49;7.20;;;4.85;;
64029;SDS011;50277;52.064;4.492;2023-06-24T04:17:14;4.90;;;4.05;;
64029;SDS011;50277;52.064;4.492;2023-06-24T04:19:39;5.95;;;4.30;;
64029;SDS011;50277;52.064;4.492;2023-06-24T04:22:06;5.65;;;3.95;;
64029;SDS011;50277;52.064;4.492;2023-06-24T04:24:31;5.57;;;4.20;;
64029;SDS011;50277;52.064;4.492;2023-06-24T04:26:57;4.55;;;4.03;;
64029;SDS011;50277;52.064;4.492;2023-06-24T04:29:23;8.68;;;4.40;;
64029;SDS011;50277;52.064;4.492;2023-06-24T04:31:48;11.48;;;4.75;;
64029;SDS011;50277;52.064;4.492;2023-06-24T04:34:13;5.28;;;4.18;;
64029;SDS011;50277;52.064;4.492;2023-06-24T04:36:39;4.88;;;3.92;;
64029;SDS011;50277;52.064;4.492;2023-06-24T04:39:04;7.63;;;4.38;;
64029;SDS011;50277;52.064;4.492;2023-06-24T04:41:29;6.93;;;4.28;;
64029;SDS011;50277;52.064;4.492;2023-06-24T04:43:57;4.57;;;4.17;;
64029;SDS011;50277;52.064;4.492;2023-06-24T04:46:22;4.35;;;3.67;;
64029;SDS011;50277;52.064;4.492;2023-06-24T04:48:47;9.18;;;4.32;;
64029;SDS011;50277;52.064;4.492;2023-06-24T04:51:13;5.13;;;4.40;;
64029;SDS011;50277;52.064;4.492;2023-06-24T04:53:38;6.65;;;4.30;;
64029;SDS011;50277;52.064;4.492;2023-06-24T04:56:03;5.60;;;4.55;;
64029;SDS011;50277;52.064;4.492;2023-06-24T04:58:29;5.78;;;4.70;;
64029;SDS011;50277;52.064;4.492;2023-06-24T05:00:54;5.78;;;4.35;;
64029;SDS011;50277;52.064;4.492;2023-06-24T05:03:19;7.32;;;4.90;;
64029;SDS011;50277;52.064;4.492;2023-06-24T05:05:45;10.23;;;4.80;;
64029;SDS011;50277;52.064;4.492;2023-06-24T05:08:10;6.07;;;5.15;;
64029;SDS011;50277;52.064;4.492;2023-06-24T05:10:35;6.07;;;4.63;;
64029;SDS011;50277;52.064;4.492;2023-06-24T05:13:01;8.48;;;5.07;;
64029;SDS011;50277;52.064;4.492;2023-06-24T05:15:26;6.15;;;4.65;;
64029;SDS011;50277;52.064;4.492;2023-06-24T05:17:51;6.57;;;5.25;;
64029;SDS011;50277;52.064;4.492;2023-06-24T05:20:17;9.70;;;5.32;;
64029;SDS011;50277;52.064;4.492;2023-06-24T05:22:43;8.55;;;4.85;;
64029;SDS011;50277;52.064;4.492;2023-06-24T05:25:08;7.90;;;5.43;;
64029;SDS011;50277;52.064;4.492;2023-06-24T05:27:34;8.15;;;5.30;;
64029;SDS011;50277;52.064;4.492;2023-06-24T05:29:59;7.18;;;5.45;;
64029;SDS011;50277;52.064;4.492;2023-06-24T05:32:24;6.50;;;4.90;;
64029;SDS011;50277;52.064;4.492;2023-06-24T05:34:50;5.97;;;4.07;;
64029;SDS011;50277;52.064;4.492;2023-06-24T05:37:15;6.15;;;4.90;;
64029;SDS011;50277;52.064;4.492;2023-06-24T05:39:41;6.93;;;4.70;;
64029;SDS011;50277;52.064;4.492;2023-06-24T05:42:06;7.47;;;5.05;;
64029;SDS011;50277;52.064;4.492;2023-06-24T05:44:31;5.47;;;4.90;;
64029;SDS011;50277;52.064;4.492;2023-06-24T05:46:57;6.32;;;4.45;;
64029;SDS011;50277;52.064;4.492;2023-06-24T05:49:22;8.73;;;5.10;;
64029;SDS011;50277;52.064;4.492;2023-06-24T05:51:48;7.40;;;5.43;;
64029;SDS011;50277;52.064;4.492;2023-06-24T05:54:13;8.38;;;5.20;;
64029;SDS011;50277;52.064;4.492;2023-06-24T05:56:39;11.52;;;4.63;;
64029;SDS011;50277;52.064;4.492;2023-06-24T05:59:04;5.38;;;4.68;;
64029;SDS011;50277;52.064;4.492;2023-06-24T06:01:29;7.20;;;4.90;;
64029;SDS011;50277;52.064;4.492;2023-06-24T06:03:55;7.00;;;5.22;;
64029;SDS011;50277;52.064;4.492;2023-06-24T06:06:20;7.57;;;5.25;;
64029;SDS011;50277;52.064;4.492;2023-06-24T06:08:46;7.78;;;4.78;;
64029;SDS011;50277;52.064;4.492;2023-06-24T06:11:12;6.00;;;4.50;;
64029;SDS011;50277;52.064;4.492;2023-06-24T06:13:37;7.00;;;5.25;;
64029;SDS011;50277;52.064;4.492;2023-06-24T06:16:02;8.05;;;4.95;;
64029;SDS011;50277;52.064;4.492;2023-06-24T06:18:28;11.15;;;4.85;;
64029;SDS011;50277;52.064;4.492;2023-06-24T06:20:53;9.18;;;5.57;;
64029;SDS011;50277;52.064;4.492;2023-06-24T06:23:19;7.13;;;4.95;;
64029;SDS011;50277;52.064;4.492;2023-06-24T06:25:44;9.13;;;4.95;;
64029;SDS011;50277;52.064;4.492;2023-06-24T06:28:09;7.35;;;5.50;;
64029;SDS011;50277;52.064;4.492;2023-06-24T06:30:35;5.72;;;4.60;;
64029;SDS011;50277;52.064;4.492;2023-06-24T06:33:00;6.13;;;5.07;;
64029;SDS011;50277;52.064;4.492;2023-06-24T06:35:25;9.23;;;5.50;;
64029;SDS011;50277;52.064;4.492;2023-06-24T06:37:51;6.45;;;5.30;;
64029;SDS011;50277;52.064;4.492;2023-06-24T06:40:22;5.57;;;4.43;;
64029;SDS011;50277;52.064;4.492;2023-06-24T06:42:48;7.97;;;5.35;;
64029;SDS011;50277;52.064;4.492;2023-06-24T06:45:13;6.90;;;4.82;;
64029;SDS011;50277;52.064;4.492;2023-06-24T06:47:38;5.43;;;4.78;;
64029;SDS011;50277;52.064;4.492;2023-06-24T06:50:04;6.88;;;4.57;;
64029;SDS011;50277;52.064;4.492;2023-06-24T06:52:30;8.45;;;4.40;;
64029;SDS011;50277;52.064;4.492;2023-06-24T06:54:55;8.10;;;5.72;;
64029;SDS011;50277;52.064;4.492;2023-06-24T06:57:21;7.38;;;5.05;;
64029;SDS011;50277;52.064;4.492;2023-06-24T06:59:47;5.93;;;4.45;;
64029;SDS011;50277;52.064;4.492;2023-06-24T07:02:14;8.07;;;5.10;;
64029;SDS011;50277;52.064;4.492;2023-06-24T07:04:40;9.13;;;5.50;;
64029;SDS011;50277;52.064;4.492;2023-06-24T07:07:05;7.32;;;5.43;;
64029;SDS011;50277;52.064;4.492;2023-06-24T07:09:30;7.22;;;4.57;;
64029;SDS011;50277;52.064;4.492;2023-06-24T07:11:56;6.82;;;5.20;;
64029;SDS011;50277;52.064;4.492;2023-06-24T07:14:21;6.53;;;5.10;;
64029;SDS011;50277;52.064;4.492;2023-06-24T07:16:46;6.63;;;4.93;;
64029;SDS011;50277;52.064;4.492;2023-06-24T07:19:12;7.80;;;5.30;;
64029;SDS011;50277;52.064;4.492;2023-06-24T07:21:37;9.90;;;5.68;;
64029;SDS011;50277;52.064;4.492;2023-06-24T07:24:03;6.93;;;5.25;;
64029;SDS011;50277;52.064;4.492;2023-06-24T07:26:29;7.55;;;5.28;;
64029;SDS011;50277;52.064;4.492;2023-06-24T07:28:58;6.95;;;4.82;;
64029;SDS011;50277;52.064;4.492;2023-06-24T07:31:23;9.45;;;5.45;;
64029;SDS011;50277;52.064;4.492;2023-06-24T07:33:49;5.60;;;4.90;;
64029;SDS011;50277;52.064;4.492;2023-06-24T07:36:14;6.78;;;4.82;;
64029;SDS011;50277;52.064;4.492;2023-06-24T07:38:39;13.95;;;5.60;;
64029;SDS011;50277;52.064;4.492;2023-06-24T07:41:05;8.98;;;5.40;;
64029;SDS011;50277;52.064;4.492;2023-06-24T07:43:30;9.40;;;5.20;;
64029;SDS011;50277;52.064;4.492;2023-06-24T07:45:55;6.30;;;4.65;;
64029;SDS011;50277;52.064;4.492;2023-06-24T07:48:21;6.43;;;5.57;;
64029;SDS011;50277;52.064;4.492;2023-06-24T07:50:46;6.47;;;5.28;;
64029;SDS011;50277;52.064;4.492;2023-06-24T07:53:11;8.38;;;5.45;;
64029;SDS011;50277;52.064;4.492;2023-06-24T07:55:37;6.25;;;5.65;;
64029;SDS011;50277;52.064;4.492;2023-06-24T07:58:02;6.20;;;4.80;;
64029;SDS011;50277;52.064;4.492;2023-06-24T08:00:28;10.63;;;5.43;;
64029;SDS011;50277;52.064;4.492;2023-06-24T08:02:53;8.73;;;5.70;;
64029;SDS011;50277;52.064;4.492;2023-06-24T08:05:20;7.07;;;6.20;;
64029;SDS011;50277;52.064;4.492;2023-06-24T08:07:45;5.15;;;4.50;;
64029;SDS011;50277;52.064;4.492;2023-06-24T08:10:11;6.05;;;5.07;;
64029;SDS011;50277;52.064;4.492;2023-06-24T08:12:36;9.95;;;5.15;;
64029;SDS011;50277;52.064;4.492;2023-06-24T08:15:02;8.23;;;4.93;;
64029;SDS011;50277;52.064;4.492;2023-06-24T08:17:27;5.43;;;4.97;;
64029;SDS011;50277;52.064;4.492;2023-06-24T08:19:53;5.90;;;5.30;;
64029;SDS011;50277;52.064;4.492;2023-06-24T08:22:18;8.63;;;5.95;;
64029;SDS011;50277;52.064;4.492;2023-06-24T08:24:43;5.32;;;4.80;;
64029;SDS011;50277;52.064;4.492;2023-06-24T08:27:09;6.68;;;5.40;;
64029;SDS011;50277;52.064;4.492;2023-06-24T08:29:34;5.67;;;5.17;;
64029;SDS011;50277;52.064;4.492;2023-06-24T08:31:59;5.47;;;4.90;;
64029;SDS011;50277;52.064;4.492;2023-06-24T08:34:25;8.33;;;5.50;;
64029;SDS011;50277;52.064;4.492;2023-06-24T08:36:51;5.80;;;4.90;;
64029;SDS011;50277;52.064;4.492;2023-06-24T08:39:16;8.55;;;5.07;;
64029;SDS011;50277;52.064;4.492;2023-06-24T08:41:42;7.67;;;4.80;;
64029;SDS011;50277;52.064;4.492;2023-06-24T08:44:07;5.80;;;4.37;;
64029;SDS011;50277;52.064;4.492;2023-06-24T08:46:32;5.33;;;4.60;;
64029;SDS011;50277;52.064;4.492;2023-06-24T08:49:44;7.65;;;4.65;;
64029;SDS011;50277;52.064;4.492;2023-06-24T08:51:49;6.30;;;5.70;;
64029;SDS011;50277;52.064;4.492;2023-06-24T08:54:16;6.07;;;5.07;;
64029;SDS011;50277;52.064;4.492;2023-06-24T08:56:44;6.88;;;5.65;;
64029;SDS011;50277;52.064;4.492;2023-06-24T08:59:09;8.07;;;6.63;;
64029;SDS011;50277;52.064;4.492;2023-06-24T09:01:34;7.82;;;5.90;;
64029;SDS011;50277;52.064;4.492;2023-06-24T09:04:00;9.90;;;6.28;;
64029;SDS011;50277;52.064;4.492;2023-06-24T09:06:25;7.68;;;6.32;;
64029;SDS011;50277;52.064;4.492;2023-06-24T09:08:57;7.68;;;5.68;;
64029;SDS011;50277;52.064;4.492;2023-06-24T09:11:23;6.38;;;5.65;;
64029;SDS011;50277;52.064;4.492;2023-06-24T09:13:54;9.18;;;5.35;;
64029;SDS011;50277;52.064;4.492;2023-06-24T09:16:22;8.60;;;5.47;;
64029;SDS011;50277;52.064;4.492;2023-06-24T09:18:48;8.35;;;5.97;;
64029;SDS011;50277;52.064;4.492;2023-06-24T09:21:20;7.70;;;5.78;;
64029;SDS011;50277;52.064;4.492;2023-06-24T09:23:55;7.43;;;6.57;;
64029;SDS011;50277;52.064;4.492;2023-06-24T09:26:25;8.75;;;6.45;;
64029;SDS011;50277;52.064;4.492;2023-06-24T09:28:51;8.13;;;5.85;;
64029;SDS011;50277;52.064;4.492;2023-06-24T09:31:18;10.48;;;6.60;;
64029;SDS011;50277;52.064;4.492;2023-06-24T09:33:44;7.25;;;5.78;;
64029;SDS011;50277;52.064;4.492;2023-06-24T09:36:13;7.93;;;6.15;;
64029;SDS011;50277;52.064;4.492;2023-06-24T09:38:40;8.75;;;6.35;;
64029;SDS011;50277;52.064;4.492;2023-06-24T09:41:06;7.25;;;6.32;;
64029;SDS011;50277;52.064;4.492;2023-06-24T09:43:35;7.35;;;6.55;;
64029;SDS011;50277;52.064;4.492;2023-06-24T09:46:02;9.02;;;6.05;;
64029;SDS011;50277;52.064;4.492;2023-06-24T09:48:28;8.40;;;6.50;;
64029;SDS011;50277;52.064;4.492;2023-06-24T09:51:01;9.10;;;6.97;;
64029;SDS011;50277;52.064;4.492;2023-06-24T09:53:30;6.28;;;5.68;;
64029;SDS011;50277;52.064;4.492;2023-06-24T09:55:57;6.95;;;5.55;;
64029;SDS011;50277;52.064;4.492;2023-06-24T09:58:24;10.13;;;6.25;;
64029;SDS011;50277;52.064;4.492;2023-06-24T10:00:50;8.90;;;6.20;;
64029;SDS011;50277;52.064;4.492;2023-06-24T10:03:16;6.50;;;5.80;;
64029;SDS011;50277;52.064;4.492;2023-06-24T10:05:41;6.07;;;5.18;;
64029;SDS011;50277;52.064;4.492;2023-06-24T10:08:08;9.45;;;6.03;;
64029;SDS011;50277;52.064;4.492;2023-06-24T10:10:34;6.40;;;5.50;;
64029;SDS011;50277;52.064;4.492;2023-06-24T10:13:00;5.70;;;4.93;;
64029;SDS011;50277;52.064;4.492;2023-06-24T10:15:25;7.38;;;5.18;;
64029;SDS011;50277;52.064;4.492;2023-06-24T10:17:51;8.60;;;5.85;;
64029;SDS011;50277;52.064;4.492;2023-06-24T10:20:25;8.75;;;6.47;;
64029;SDS011;50277;52.064;4.492;2023-06-24T10:22:51;5.85;;;4.90;;
64029;SDS011;50277;52.064;4.492;2023-06-24T10:25:17;8.20;;;5.20;;
64029;SDS011;50277;52.064;4.492;2023-06-24T10:27:43;8.32;;;5.35;;
64029;SDS011;50277;52.064;4.492;2023-06-24T10:30:08;9.27;;;8.27;;
64029;SDS011;50277;52.064;4.492;2023-06-24T10:32:42;10.73;;;6.30;;
64029;SDS011;50277;52.064;4.492;2023-06-24T10:35:21;10.40;;;6.07;;
64029;SDS011;50277;52.064;4.492;2023-06-24T10:37:53;7.32;;;5.43;;
64029;SDS011;50277;52.064;4.492;2023-06-24T10:40:33;6.90;;;5.47;;
64029;SDS011;50277;52.064;4.492;2023-06-24T10:45:49;9.15;;;6.43;;
64029;SDS011;50277;52.064;4.492;2023-06-24T10:48:15;7.75;;;4.95;;
64029;SDS011;50277;52.064;4.492;2023-06-24T10:50:40;10.43;;;5.03;;
64029;SDS011;50277;52.064;4.492;2023-06-24T10:53:08;12.02;;;6.00;;
64029;SDS011;50277;52.064;4.492;2023-06-24T10:55:33;6.47;;;4.95;;
64029;SDS011;50277;52.064;4.492;2023-06-24T10:58:07;9.20;;;5.45;;
64029;SDS011;50277;52.064;4.492;2023-06-24T11:00:33;8.25;;;5.93;;
64029;SDS011;50277;52.064;4.492;2023-06-24T11:03:07;6.60;;;5.25;;
64029;SDS011;50277;52.064;4.492;2023-06-24T11:05:37;8.15;;;5.20;;
64029;SDS011;50277;52.064;4.492;2023-06-24T11:08:04;7.55;;;5.05;;
64029;SDS011;50277;52.064;4.492;2023-06-24T11:10:30;6.55;;;4.88;;
64029;SDS011;50277;52.064;4.492;2023-06-24T11:12:55;7.82;;;4.85;;
64029;SDS011;50277;52.064;4.492;2023-06-24T11:15:23;8.45;;;4.68;;
64029;SDS011;50277;52.064;4.492;2023-06-24T11:17:50;11.18;;;4.47;;
64029;SDS011;50277;52.064;4.492;2023-06-24T11:20:16;5.45;;;3.97;;
64029;SDS011;50277;52.064;4.492;2023-06-24T11:22:42;7.60;;;5.00;;
64029;SDS011;50277;52.064;4.492;2023-06-24T11:25:14;5.43;;;4.45;;
64029;SDS011;50277;52.064;4.492;2023-06-24T11:27:41;8.35;;;5.10;;
64029;SDS011;50277;52.064;4.492;2023-06-24T11:30:07;6.05;;;4.20;;
64029;SDS011;50277;52.064;4.492;2023-06-24T11:32:36;7.90;;;5.43;;
64029;SDS011;50277;52.064;4.492;2023-06-24T11:35:02;7.38;;;5.38;;
64029;SDS011;50277;52.064;4.492;2023-06-24T11:37:30;6.53;;;4.60;;
64029;SDS011;50277;52.064;4.492;2023-06-24T11:40:02;4.22;;;3.83;;
64029;SDS011;50277;52.064;4.492;2023-06-24T11:42:31;5.75;;;4.93;;
64029;SDS011;50277;52.064;4.492;2023-06-24T11:45:01;7.65;;;4.40;;
64029;SDS011;50277;52.064;4.492;2023-06-24T11:47:30;6.38;;;4.30;;
64029;SDS011;50277;52.064;4.492;2023-06-24T11:49:57;6.68;;;4.53;;
64029;SDS011;50277;52.064;4.492;2023-06-24T11:52:33;7.25;;;5.30;;
64029;SDS011;50277;52.064;4.492;2023-06-24T11:55:03;6.72;;;5.25;;
64029;SDS011;50277;52.064;4.492;2023-06-24T12:00:30;5.32;;;4.70;;
64029;SDS011;50277;52.064;4.492;2023-06-24T12:02:58;7.60;;;4.45;;
64029;SDS011;50277;52.064;4.492;2023-06-24T12:05:26;6.50;;;5.03;;
64029;SDS011;50277;52.064;4.492;2023-06-24T12:07:56;5.60;;;4.30;;
64029;SDS011;50277;52.064;4.492;2023-06-24T12:10:23;7.20;;;5.03;;
64029;SDS011;50277;52.064;4.492;2023-06-24T12:12:48;8.52;;;5.13;;
64029;SDS011;50277;52.064;4.492;2023-06-24T12:15:14;8.80;;;5.43;;
64029;SDS011;50277;52.064;4.492;2023-06-24T12:17:39;7.82;;;4.40;;
64029;SDS011;50277;52.064;4.492;2023-06-24T12:20:05;7.00;;;5.40;;
64029;SDS011;50277;52.064;4.492;2023-06-24T12:22:31;7.43;;;4.25;;
64029;SDS011;50277;52.064;4.492;2023-06-24T12:24:56;7.50;;;5.07;;
64029;SDS011;50277;52.064;4.492;2023-06-24T12:27:21;6.00;;;4.95;;
64029;SDS011;50277;52.064;4.492;2023-06-24T12:29:47;6.57;;;5.10;;
64029;SDS011;50277;52.064;4.492;2023-06-24T12:32:12;5.20;;;4.70;;
64029;SDS011;50277;52.064;4.492;2023-06-24T12:34:37;5.07;;;4.43;;
64029;SDS011;50277;52.064;4.492;2023-06-24T12:37:03;6.00;;;4.50;;
64029;SDS011;50277;52.064;4.492;2023-06-24T12:39:28;9.25;;;4.82;;
64029;SDS011;50277;52.064;4.492;2023-06-24T12:41:54;9.10;;;4.90;;
64029;SDS011;50277;52.064;4.492;2023-06-24T12:44:19;7.50;;;5.38;;
64029;SDS011;50277;52.064;4.492;2023-06-24T12:46:44;9.43;;;6.70;;
64029;SDS011;50277;52.064;4.492;2023-06-24T12:49:10;7.65;;;6.40;;
64029;SDS011;50277;52.064;4.492;2023-06-24T12:51:35;5.65;;;4.70;;
64029;SDS011;50277;52.064;4.492;2023-06-24T12:54:00;6.38;;;5.18;;
64029;SDS011;50277;52.064;4.492;2023-06-24T12:56:25;8.52;;;5.93;;
64029;SDS011;50277;52.064;4.492;2023-06-24T12:58:51;8.43;;;6.03;;
64029;SDS011;50277;52.064;4.492;2023-06-24T13:01:16;9.50;;;5.50;;
64029;SDS011;50277;52.064;4.492;2023-06-24T13:03:41;9.10;;;5.65;;
64029;SDS011;50277;52.064;4.492;2023-06-24T13:06:07;8.48;;;6.60;;
64029;SDS011;50277;52.064;4.492;2023-06-24T13:08:32;8.27;;;6.22;;
64029;SDS011;50277;52.064;4.492;2023-06-24T13:10:58;8.57;;;6.68;;
64029;SDS011;50277;52.064;4.492;2023-06-24T13:13:23;12.40;;;6.50;;
64029;SDS011;50277;52.064;4.492;2023-06-24T13:15:48;11.05;;;5.82;;
64029;SDS011;50277;52.064;4.492;2023-06-24T13:18:14;6.82;;;5.63;;
64029;SDS011;50277;52.064;4.492;2023-06-24T13:20:39;7.60;;;5.93;;
64029;SDS011;50277;52.064;4.492;2023-06-24T13:23:04;6.03;;;5.40;;
64029;SDS011;50277;52.064;4.492;2023-06-24T13:25:30;7.30;;;6.03;;
64029;SDS011;50277;52.064;4.492;2023-06-24T13:27:56;7.10;;;5.75;;
64029;SDS011;50277;52.064;4.492;2023-06-24T13:30:22;6.50;;;4.82;;
64029;SDS011;50277;52.064;4.492;2023-06-24T13:32:47;10.68;;;7.63;;
64029;SDS011;50277;52.064;4.492;2023-06-24T13:35:14;9.70;;;6.70;;
64029;SDS011;50277;52.064;4.492;2023-06-24T13:37:39;9.45;;;7.05;;
64029;SDS011;50277;52.064;4.492;2023-06-24T13:40:05;7.00;;;5.85;;
64029;SDS011;50277;52.064;4.492;2023-06-24T13:42:31;7.22;;;5.40;;
64029;SDS011;50277;52.064;4.492;2023-06-24T13:44:57;10.88;;;6.57;;
64029;SDS011;50277;52.064;4.492;2023-06-24T13:47:22;7.35;;;5.90;;
64029;SDS011;50277;52.064;4.492;2023-06-24T13:49:48;7.05;;;5.95;;
64029;SDS011;50277;52.064;4.492;2023-06-24T13:52:13;8.73;;;6.70;;
64029;SDS011;50277;52.064;4.492;2023-06-24T13:54:38;8.93;;;5.70;;
64029;SDS011;50277;52.064;4.492;2023-06-24T13:57:04;6.95;;;6.18;;
64029;SDS011;50277;52.064;4.492;2023-06-24T13:59:29;8.32;;;7.53;;
64029;SDS011;50277;52.064;4.492;2023-06-24T14:01:54;6.93;;;6.30;;
64029;SDS011;50277;52.064;4.492;2023-06-24T14:04:20;7.68;;;6.28;;
64029;SDS011;50277;52.064;4.492;2023-06-24T14:06:45;11.60;;;6.95;;
64029;SDS011;50277;52.064;4.492;2023-06-24T14:09:11;10.55;;;6.47;;
64029;SDS011;50277;52.064;4.492;2023-06-24T14:11:37;6.10;;;5.47;;
64029;SDS011;50277;52.064;4.492;2023-06-24T14:14:02;8.00;;;6.45;;
64029;SDS011;50277;52.064;4.492;2023-06-24T14:16:28;11.85;;;6.93;;
64029;SDS011;50277;52.064;4.492;2023-06-24T14:18:53;9.68;;;7.22;;
64029;SDS011;50277;52.064;4.492;2023-06-24T14:21:18;11.40;;;6.85;;
64029;SDS011;50277;52.064;4.492;2023-06-24T14:23:44;9.32;;;6.85;;
64029;SDS011;50277;52.064;4.492;2023-06-24T14:26:09;9.20;;;7.90;;
64029;SDS011;50277;52.064;4.492;2023-06-24T14:28:34;10.27;;;8.23;;
64029;SDS011;50277;52.064;4.492;2023-06-24T14:31:00;7.25;;;6.40;;
64029;SDS011;50277;52.064;4.492;2023-06-24T14:33:25;9.15;;;6.95;;
64029;SDS011;50277;52.064;4.492;2023-06-24T14:35:50;11.52;;;7.85;;
64029;SDS011;50277;52.064;4.492;2023-06-24T14:38:16;8.57;;;6.90;;
64029;SDS011;50277;52.064;4.492;2023-06-24T14:40:41;8.85;;;7.93;;
64029;SDS011;50277;52.064;4.492;2023-06-24T14:43:07;16.08;;;10.02;;
64029;SDS011;50277;52.064;4.492;2023-06-24T14:45:32;11.13;;;9.73;;
64029;SDS011;50277;52.064;4.492;2023-06-24T14:47:57;10.35;;;9.23;;
64029;SDS011;50277;52.064;4.492;2023-06-24T14:50:23;13.98;;;10.25;;
64029;SDS011;50277;52.064;4.492;2023-06-24T14:52:48;12.23;;;10.57;;